createdAt,value
2016-11-25T00:00:32.137Z,1004.49
2016-11-25T00:02:42.099Z,1004.42
2016-11-25T00:05:18.124Z,1004.52
2016-11-25T00:05:50.426Z,1004.31
2016-11-25T00:11:46.870Z,1004.06
2016-11-25T00:51:38.474Z,1004.09
2016-11-25T00:55:48.029Z,1004.12
2016-11-25T00:56:27.000Z,1004.06
2016-11-25T01:08:00.227Z,1004.01
2016-11-25T02:14:18.074Z,1003.70
2016-11-25T02:15:30.967Z,1003.60
2016-11-25T02:16:21.286Z,1003.61
2016-11-25T02:22:48.813Z,1003.64
2016-11-25T02:25:50.601Z,1003.66
2016-11-25T02:33:36.061Z,1003.50
2016-11-25T03:07:43.026Z,1003.26
2016-11-25T03:31:06.232Z,1002.93
2016-11-25T03:59:45.653Z,1002.77
2016-11-25T04:04:27.074Z,1002.56
2016-11-25T04:15:23.055Z,1002.53
2016-11-25T04:17:53.868Z,1002.67
2016-11-25T04:18:29.560Z,1002.73
2016-11-25T04:19:42.681Z,1002.76
2016-11-25T04:21:15.057Z,1002.69
2016-11-25T04:21:50.938Z,1002.61
2016-11-25T04:24:46.671Z,1002.59
2016-11-25T04:25:18.080Z,1002.61
2016-11-25T04:34:25.697Z,1002.74
2016-11-25T04:37:09.610Z,1003.10
2016-11-25T04:38:08.495Z,1002.85
2016-11-25T04:38:35.002Z,1002.78
2016-11-25T04:41:12.776Z,1002.86
2016-11-25T04:41:48.842Z,1002.93
2016-11-25T04:44:33.069Z,1002.89
2016-11-25T04:45:22.361Z,1002.92
2016-11-25T04:46:27.574Z,1002.81
2016-11-25T04:47:41.674Z,1003.04
2016-11-25T04:48:08.187Z,1002.99
2016-11-25T04:48:39.596Z,1002.99
2016-11-25T04:49:08.119Z,1002.96
2016-11-25T04:49:42.275Z,1002.99
2016-11-25T04:54:40.421Z,1002.86
2016-11-25T04:55:44.584Z,1003.05
2016-11-25T04:57:04.225Z,1003.08
2016-11-25T04:58:53.171Z,1002.99
2016-11-25T05:37:49.296Z,1003.19
2016-11-25T05:54:20.765Z,1003.22
2016-11-25T05:59:27.329Z,1003.20
2016-11-25T05:59:56.572Z,1003.19
2016-11-25T06:01:48.214Z,1003.08
2016-11-25T06:06:05.708Z,1003.23
2016-11-25T06:07:48.604Z,1003.06
2016-11-25T06:08:51.841Z,1003.04
2016-11-25T06:10:47.510Z,1003.16
2016-11-25T06:12:48.584Z,1003.28
2016-11-25T06:13:20.902Z,1003.11
2016-11-25T06:15:53.367Z,1003.17
2016-11-25T06:16:25.796Z,1003.12
2016-11-25T06:16:48.563Z,1003.21
2016-11-25T06:17:10.574Z,1003.13
2016-11-25T06:17:43.210Z,1003.29
2016-11-25T06:19:30.459Z,1003.17
2016-11-25T06:20:38.776Z,1003.20
2016-11-25T06:21:11.060Z,1003.24
2016-11-25T06:22:18.356Z,1003.21
2016-11-25T06:23:30.324Z,1003.40
2016-11-25T06:24:02.594Z,1003.28
2016-11-25T06:25:24.748Z,1003.49
2016-11-25T06:25:58.912Z,1003.33
2016-11-25T06:28:29.812Z,1003.33
2016-11-25T06:31:11.701Z,1003.36
2016-11-25T06:32:04.710Z,1003.57
2016-11-25T06:32:26.448Z,1003.44
2016-11-25T06:32:53.946Z,1003.43
2016-11-25T06:33:15.692Z,1003.32
2016-11-25T06:33:37.434Z,1003.37
2016-11-25T06:33:59.185Z,1003.40
2016-11-25T06:34:20.927Z,1003.37
2016-11-25T06:35:19.692Z,1003.37
2016-11-25T06:35:46.198Z,1003.36
2016-11-25T06:36:07.954Z,1003.39
2016-11-25T06:36:29.706Z,1003.47
2016-11-25T06:36:52.453Z,1003.30
2016-11-25T06:37:14.187Z,1003.31
2016-11-25T06:37:36.926Z,1003.33
2016-11-25T06:37:59.663Z,1003.28
2016-11-25T06:38:21.503Z,1003.34
2016-11-25T06:38:43.251Z,1003.36
2016-11-25T06:39:06.985Z,1003.27
2016-11-25T06:39:28.731Z,1003.28
2016-11-25T06:39:50.469Z,1003.22
2016-11-25T06:40:12.205Z,1003.20
2016-11-25T06:40:33.962Z,1003.17
2016-11-25T06:40:56.705Z,1003.18
2016-11-25T06:41:24.229Z,1003.23
2016-11-25T06:41:46.974Z,1003.33
2016-11-25T06:42:36.199Z,1003.28
2016-11-25T06:42:57.943Z,1003.19
2016-11-25T06:43:19.689Z,1003.22
2016-11-25T06:43:41.431Z,1003.19
2016-11-25T06:44:04.172Z,1003.35
2016-11-25T06:44:25.915Z,1003.34
2016-11-25T06:44:47.644Z,1003.29
2016-11-25T06:45:09.392Z,1003.16
2016-11-25T06:45:31.139Z,1003.26
2016-11-25T06:45:52.864Z,1003.23
2016-11-25T06:46:14.608Z,1003.23
2016-11-25T06:46:36.344Z,1003.24
2016-11-25T06:46:58.092Z,1003.17
2016-11-25T06:47:19.837Z,1003.16
2016-11-25T06:47:41.568Z,1003.18
2016-11-25T06:48:03.307Z,1003.09
2016-11-25T06:48:25.034Z,1003.00
2016-11-25T06:49:20.682Z,1003.22
2016-11-25T06:49:42.416Z,1003.33
2016-11-25T06:50:04.151Z,1003.28
2016-11-25T06:50:25.893Z,1003.26
2016-11-25T06:51:18.843Z,1003.31
2016-11-25T06:51:41.577Z,1003.28
2016-11-25T06:52:03.305Z,1003.28
2016-11-25T06:53:05.856Z,1003.41
2016-11-25T06:53:28.669Z,1003.06
2016-11-25T06:53:50.415Z,1003.23
2016-11-25T06:54:12.148Z,1003.28
2016-11-25T06:54:33.903Z,1003.17
2016-11-25T06:54:55.641Z,1003.22
2016-11-25T06:55:18.387Z,1003.22
2016-11-25T06:55:44.888Z,1003.15
2016-11-25T06:56:17.150Z,1003.18
2016-11-25T06:56:44.661Z,1003.14
2016-11-25T06:57:06.395Z,1003.19
2016-11-25T06:57:28.158Z,1003.21
2016-11-25T06:57:55.652Z,1003.23
2016-11-25T06:58:17.388Z,1003.19
2016-11-25T06:58:43.764Z,1003.17
2016-11-25T06:59:05.524Z,1003.22
2016-11-25T06:59:27.268Z,1003.24
2016-11-25T06:59:49.001Z,1003.22
2016-11-25T07:00:10.885Z,1003.16
2016-11-25T07:00:32.631Z,1003.23
2016-11-25T07:00:55.365Z,1003.18
2016-11-25T07:01:43.616Z,1003.17
2016-11-25T07:02:05.359Z,1003.07
2016-11-25T07:02:27.104Z,1003.17
2016-11-25T07:02:53.610Z,1003.08
2016-11-25T07:03:16.363Z,1003.19
2016-11-25T07:03:38.102Z,1003.08
2016-11-25T07:03:59.849Z,1003.13
2016-11-25T07:04:26.353Z,1003.15
2016-11-25T07:05:19.353Z,1003.19
2016-11-25T07:05:46.882Z,1003.21
2016-11-25T07:06:08.643Z,1003.06
2016-11-25T07:06:35.153Z,1003.16
2016-11-25T07:06:56.890Z,1003.19
2016-11-25T07:07:23.387Z,1003.19
2016-11-25T07:07:46.129Z,1003.07
2016-11-25T07:08:12.648Z,1003.25
2016-11-25T07:08:43.735Z,1003.18
2016-11-25T07:09:32.022Z,1003.08
2016-11-25T07:09:53.768Z,1003.02
2016-11-25T07:10:43.058Z,1003.21
2016-11-25T07:11:05.902Z,1003.02
2016-11-25T07:11:28.651Z,1002.94
2016-11-25T07:11:50.406Z,1003.09
2016-11-25T07:12:17.917Z,1003.21
2016-11-25T07:12:40.653Z,1003.12
2016-11-25T07:13:02.399Z,1003.11
2016-11-25T07:13:24.151Z,1003.19
2016-11-25T07:13:46.895Z,1003.08
2016-11-25T07:15:24.468Z,1003.19
2016-11-25T07:15:50.964Z,1003.21
2016-11-25T07:16:12.710Z,1003.22
2016-11-25T07:16:34.445Z,1003.12
2016-11-25T07:16:58.712Z,1003.18
2016-11-25T07:17:20.451Z,1003.16
2016-11-25T07:17:42.183Z,1003.37
2016-11-25T07:18:04.930Z,1003.24
2016-11-25T07:18:26.682Z,1003.33
2016-11-25T07:18:48.412Z,1003.20
2016-11-25T07:19:14.916Z,1003.20
2016-11-25T07:19:36.675Z,1003.23
2016-11-25T07:19:58.422Z,1003.24
2016-11-25T07:20:20.164Z,1003.24
2016-11-25T07:20:41.909Z,1003.40
2016-11-25T07:21:03.664Z,1003.39
2016-11-25T07:21:25.402Z,1003.15
2016-11-25T07:21:47.138Z,1003.10
2016-11-25T07:22:09.125Z,1003.23
2016-11-25T07:22:30.874Z,1003.28
2016-11-25T07:22:52.617Z,1003.29
2016-11-25T07:23:14.357Z,1003.10
2016-11-25T07:23:36.106Z,1003.21
2016-11-25T07:23:57.879Z,1003.24
2016-11-25T07:24:19.630Z,1003.30
2016-11-25T07:24:41.363Z,1003.26
2016-11-25T07:25:03.079Z,1003.23
2016-11-25T07:25:24.802Z,1003.16
2016-11-25T07:25:47.527Z,1003.27
2016-11-25T07:26:09.249Z,1003.23
2016-11-25T07:26:30.972Z,1003.49
2016-11-25T07:26:53.763Z,1003.27
2016-11-25T07:27:15.492Z,1003.43
2016-11-25T07:27:37.211Z,1003.42
2016-11-25T07:27:59.980Z,1003.28
2016-11-25T07:28:24.390Z,1003.25
2016-11-25T07:28:46.123Z,1003.24
2016-11-25T07:29:08.872Z,1003.34
2016-11-25T07:29:36.372Z,1003.35
2016-11-25T07:30:02.865Z,1003.31
2016-11-25T07:31:11.892Z,1003.22
2016-11-25T07:31:41.368Z,1003.20
2016-11-25T07:32:12.646Z,1003.23
2016-11-25T07:32:41.943Z,1003.29
2016-11-25T07:33:08.445Z,1003.31
2016-11-25T07:34:18.426Z,1003.26
2016-11-25T07:35:45.708Z,1003.15
2016-11-25T07:36:12.245Z,1003.28
2016-11-25T07:36:38.854Z,1003.10
2016-11-25T07:37:45.475Z,1003.25
2016-11-25T07:38:08.195Z,1003.23
2016-11-25T07:38:35.692Z,1003.28
2016-11-25T07:39:31.116Z,1003.19
2016-11-25T07:40:29.329Z,1003.20
2016-11-25T07:40:53.051Z,1003.35
2016-11-25T07:41:19.556Z,1003.28
2016-11-25T07:41:47.041Z,1003.46
2016-11-25T07:42:18.308Z,1003.26
2016-11-25T07:42:44.809Z,1003.37
2016-11-25T07:43:13.307Z,1003.37
2016-11-25T07:43:40.814Z,1003.41
2016-11-25T07:44:10.226Z,1003.42
2016-11-25T07:44:39.593Z,1003.33
2016-11-25T07:45:01.339Z,1003.39
2016-11-25T07:45:54.365Z,1003.32
2016-11-25T07:46:16.126Z,1003.39
2016-11-25T07:46:40.795Z,1003.36
2016-11-25T07:47:07.318Z,1003.37
2016-11-25T07:47:29.058Z,1003.40
2016-11-25T07:47:56.383Z,1003.36
2016-11-25T07:48:53.974Z,1003.51
2016-11-25T07:49:48.057Z,1003.36
2016-11-25T07:52:40.467Z,1003.58
2016-11-25T07:53:07.024Z,1003.44
2016-11-25T07:53:28.785Z,1003.47
2016-11-25T07:53:50.519Z,1003.38
2016-11-25T07:54:12.246Z,1003.39
2016-11-25T07:54:33.985Z,1003.37
2016-11-25T07:54:56.714Z,1003.36
2016-11-25T07:55:18.450Z,1003.54
2016-11-25T07:55:40.247Z,1003.53
2016-11-25T07:56:01.973Z,1003.54
2016-11-25T07:56:23.727Z,1003.52
2016-11-25T07:56:45.475Z,1003.65
2016-11-25T07:57:07.198Z,1003.56
2016-11-25T07:57:33.701Z,1003.42
2016-11-25T07:57:55.432Z,1003.55
2016-11-25T07:58:17.159Z,1003.64
2016-11-25T07:58:38.919Z,1003.55
2016-11-25T07:59:00.657Z,1003.59
2016-11-25T07:59:22.392Z,1003.53
2016-11-25T07:59:44.137Z,1003.56
2016-11-25T08:00:05.869Z,1003.50
2016-11-25T08:00:32.366Z,1003.61
2016-11-25T08:00:54.129Z,1003.56
2016-11-25T08:01:42.357Z,1003.53
2016-11-25T08:02:04.090Z,1003.62
2016-11-25T08:02:25.822Z,1003.70
2016-11-25T08:02:47.566Z,1003.63
2016-11-25T08:03:09.289Z,1003.65
2016-11-25T08:03:31.031Z,1003.65
2016-11-25T08:03:52.896Z,1003.55
2016-11-25T08:04:14.656Z,1003.54
2016-11-25T08:04:36.383Z,1003.53
2016-11-25T08:04:58.115Z,1003.54
2016-11-25T08:05:19.856Z,1003.60
2016-11-25T08:05:41.578Z,1003.58
2016-11-25T08:06:03.312Z,1003.57
2016-11-25T08:06:25.059Z,1003.50
2016-11-25T08:07:19.941Z,1003.60
2016-11-25T08:07:42.648Z,1003.62
2016-11-25T08:08:07.107Z,1003.70
2016-11-25T08:08:34.630Z,1003.56
2016-11-25T08:08:56.365Z,1003.57
2016-11-25T08:09:18.101Z,1003.49
2016-11-25T08:09:39.836Z,1003.52
2016-11-25T08:10:02.583Z,1003.53
2016-11-25T08:10:24.334Z,1003.59
2016-11-25T08:10:46.075Z,1003.54
2016-11-25T08:11:43.654Z,1003.67
2016-11-25T08:12:05.400Z,1003.57
2016-11-25T08:12:53.678Z,1003.62
2016-11-25T08:13:23.131Z,1003.71
2016-11-25T08:13:44.892Z,1003.72
2016-11-25T08:14:09.253Z,1003.68
2016-11-25T08:14:30.988Z,1003.67
2016-11-25T08:14:53.720Z,1003.54
2016-11-25T08:15:16.533Z,1003.62
2016-11-25T08:15:38.269Z,1003.59
2016-11-25T08:16:00.018Z,1003.68
2016-11-25T08:16:21.745Z,1003.60
2016-11-25T08:16:43.497Z,1003.76
2016-11-25T08:17:10.006Z,1003.68
2016-11-25T08:17:31.736Z,1003.67
2016-11-25T08:17:54.486Z,1003.70
2016-11-25T08:18:20.990Z,1003.75
2016-11-25T08:18:43.734Z,1003.77
2016-11-25T08:19:05.464Z,1003.66
2016-11-25T08:19:27.188Z,1003.66
2016-11-25T08:19:48.939Z,1003.70
2016-11-25T08:20:11.677Z,1003.77
2016-11-25T08:20:38.203Z,1003.70
2016-11-25T08:21:36.512Z,1003.68
2016-11-25T08:22:03.010Z,1003.65
2016-11-25T08:22:24.751Z,1003.63
2016-11-25T08:22:46.482Z,1003.63
2016-11-25T08:23:08.237Z,1003.73
2016-11-25T08:23:29.978Z,1003.74
2016-11-25T08:23:51.703Z,1003.74
2016-11-25T08:24:13.432Z,1003.80
2016-11-25T08:24:35.164Z,1003.74
2016-11-25T08:24:56.892Z,1003.73
2016-11-25T08:25:21.490Z,1003.74
2016-11-25T08:25:43.231Z,1003.70
2016-11-25T08:26:04.962Z,1003.74
2016-11-25T08:26:26.696Z,1003.67
2016-11-25T08:26:48.429Z,1003.72
2016-11-25T08:27:10.155Z,1003.79
2016-11-25T08:27:31.885Z,1003.73
2016-11-25T08:27:54.613Z,1003.64
2016-11-25T08:28:16.334Z,1003.66
2016-11-25T08:28:39.068Z,1003.72
2016-11-25T08:29:05.566Z,1003.72
2016-11-25T08:29:27.300Z,1003.71
2016-11-25T08:29:49.039Z,1003.73
2016-11-25T08:30:47.805Z,1003.65
2016-11-25T08:31:12.060Z,1003.70
2016-11-25T08:31:33.800Z,1003.74
2016-11-25T08:32:42.053Z,1003.82
2016-11-25T08:33:03.805Z,1003.75
2016-11-25T08:33:26.547Z,1003.69
2016-11-25T08:33:48.272Z,1003.76
2016-11-25T08:34:12.919Z,1003.75
2016-11-25T08:34:35.656Z,1003.78
2016-11-25T08:35:07.919Z,1003.73
2016-11-25T08:36:03.447Z,1003.66
2016-11-25T08:36:29.954Z,1003.76
2016-11-25T08:36:51.687Z,1003.75
2016-11-25T08:37:13.424Z,1003.75
2016-11-25T08:38:02.660Z,1003.65
2016-11-25T08:38:25.409Z,1003.67
2016-11-25T08:38:47.152Z,1003.77
2016-11-25T08:39:08.884Z,1003.70
2016-11-25T08:39:30.610Z,1003.76
2016-11-25T08:39:52.357Z,1003.70
2016-11-25T08:40:50.128Z,1003.79
2016-11-25T08:41:21.434Z,1003.70
2016-11-25T08:41:43.194Z,1003.74
2016-11-25T08:42:36.231Z,1003.80
2016-11-25T08:42:57.970Z,1003.75
2016-11-25T08:43:20.728Z,1003.68
2016-11-25T08:43:42.480Z,1003.78
2016-11-25T08:44:04.222Z,1003.74
2016-11-25T08:44:25.982Z,1003.73
2016-11-25T08:44:52.486Z,1003.78
2016-11-25T08:45:16.760Z,1003.82
2016-11-25T08:45:44.255Z,1003.73
2016-11-25T08:46:15.519Z,1003.71
2016-11-25T08:46:42.019Z,1003.79
2016-11-25T08:47:08.339Z,1003.73
2016-11-25T08:47:34.839Z,1003.75
2016-11-25T08:48:01.167Z,1003.81
2016-11-25T08:48:28.658Z,1003.70
2016-11-25T08:49:00.443Z,1003.69
2016-11-25T08:49:23.178Z,1003.70
2016-11-25T08:50:16.170Z,1003.75
2016-11-25T08:50:42.666Z,1003.81
2016-11-25T08:51:30.909Z,1003.89
2016-11-25T08:51:52.646Z,1003.82
2016-11-25T08:52:14.382Z,1003.78
2016-11-25T08:52:36.115Z,1003.80
2016-11-25T08:52:57.870Z,1003.78
2016-11-25T08:53:29.185Z,1003.81
2016-11-25T08:53:53.430Z,1003.90
2016-11-25T08:54:15.181Z,1003.78
2016-11-25T08:54:39.565Z,1003.84
2016-11-25T08:55:07.417Z,1003.84
2016-11-25T08:55:30.277Z,1003.88
2016-11-25T08:55:56.113Z,1003.81
2016-11-25T08:56:22.616Z,1003.83
2016-11-25T08:56:54.594Z,1003.86
2016-11-25T08:57:17.335Z,1003.83
2016-11-25T08:58:25.400Z,1003.76
2016-11-25T08:58:56.485Z,1003.95
2016-11-25T08:59:21.083Z,1003.93
2016-11-25T08:59:42.821Z,1003.93
2016-11-25T09:00:07.284Z,1004.00
2016-11-25T09:00:29.026Z,1004.04
2016-11-25T09:00:51.778Z,1004.07
2016-11-25T09:01:44.794Z,1003.94
2016-11-25T09:02:14.197Z,1003.99
2016-11-25T09:02:35.952Z,1003.99
2016-11-25T09:02:57.697Z,1003.93
2016-11-25T09:03:19.426Z,1004.00
2016-11-25T09:03:41.177Z,1003.98
2016-11-25T09:04:02.928Z,1004.01
2016-11-25T09:04:24.717Z,1003.93
2016-11-25T09:04:51.837Z,1004.00
2016-11-25T09:05:13.578Z,1003.96
2016-11-25T09:05:35.311Z,1003.96
2016-11-25T09:06:28.298Z,1003.99
2016-11-25T09:06:50.028Z,1003.91
2016-11-25T09:07:11.776Z,1004.04
2016-11-25T09:07:38.279Z,1003.94
2016-11-25T09:08:00.010Z,1004.02
2016-11-25T09:08:22.743Z,1004.01
2016-11-25T09:08:51.261Z,1004.06
2016-11-25T09:09:54.883Z,1004.02
2016-11-25T09:10:16.627Z,1003.99
2016-11-25T09:10:42.006Z,1003.97
2016-11-25T09:11:33.834Z,1004.13
2016-11-25T09:12:00.572Z,1004.08
2016-11-25T09:12:22.314Z,1004.09
2016-11-25T09:12:44.042Z,1004.04
2016-11-25T09:13:05.854Z,1004.03
2016-11-25T09:13:32.356Z,1004.07
2016-11-25T09:13:54.093Z,1004.06
2016-11-25T09:14:15.944Z,1004.02
2016-11-25T09:14:38.681Z,1004.08
2016-11-25T09:15:05.309Z,1004.09
2016-11-25T09:15:27.058Z,1004.04
2016-11-25T09:15:48.801Z,1003.95
2016-11-25T09:16:10.536Z,1003.94
2016-11-25T09:16:32.280Z,1003.98
2016-11-25T09:17:22.553Z,1003.99
2016-11-25T09:17:45.322Z,1004.09
2016-11-25T09:18:07.072Z,1004.05
2016-11-25T09:18:28.800Z,1004.07
2016-11-25T09:18:50.540Z,1003.96
2016-11-25T09:19:12.273Z,1004.05
2016-11-25T09:19:38.774Z,1003.99
2016-11-25T09:20:10.052Z,1004.05
2016-11-25T09:20:31.785Z,1003.98
2016-11-25T09:20:53.516Z,1004.08
2016-11-25T09:21:15.266Z,1004.08
2016-11-25T09:21:47.538Z,1004.20
2016-11-25T09:22:09.280Z,1004.09
2016-11-25T09:22:31.032Z,1004.10
2016-11-25T09:23:25.046Z,1004.09
2016-11-25T09:23:46.787Z,1004.12
2016-11-25T09:24:08.532Z,1004.12
2016-11-25T09:24:30.269Z,1004.08
2016-11-25T09:24:51.996Z,1004.14
2016-11-25T09:25:13.760Z,1004.13
2016-11-25T09:25:40.269Z,1004.17
2016-11-25T09:26:02.003Z,1004.19
2016-11-25T09:26:28.502Z,1004.10
2016-11-25T09:26:50.333Z,1004.14
2016-11-25T09:27:12.057Z,1004.09
2016-11-25T09:27:33.850Z,1004.06
2016-11-25T09:27:55.584Z,1004.14
2016-11-25T09:28:17.330Z,1004.13
2016-11-25T09:28:39.079Z,1004.13
2016-11-25T09:29:00.803Z,1004.14
2016-11-25T09:29:22.534Z,1004.10
2016-11-25T09:29:44.287Z,1004.13
2016-11-25T09:30:08.052Z,1004.14
2016-11-25T09:30:33.711Z,1004.20
2016-11-25T09:31:05.976Z,1004.11
2016-11-25T09:31:28.712Z,1004.12
2016-11-25T09:31:50.470Z,1004.14
2016-11-25T09:32:14.216Z,1004.16
2016-11-25T09:32:35.954Z,1004.14
2016-11-25T09:32:57.695Z,1004.12
2016-11-25T09:33:24.182Z,1004.18
2016-11-25T09:33:46.919Z,1004.09
2016-11-25T09:34:08.642Z,1004.04
2016-11-25T09:34:30.374Z,1004.07
2016-11-25T09:34:53.117Z,1004.07
2016-11-25T09:35:15.875Z,1004.07
2016-11-25T09:35:37.580Z,1004.10
2016-11-25T09:35:59.329Z,1004.07
2016-11-25T09:36:21.063Z,1004.04
2016-11-25T09:36:42.811Z,1004.03
2016-11-25T09:37:04.545Z,1004.03
2016-11-25T09:37:27.299Z,1004.04
2016-11-25T09:37:50.027Z,1004.02
2016-11-25T09:38:11.754Z,1004.06
2016-11-25T09:38:33.746Z,1004.01
2016-11-25T09:39:30.515Z,1004.04
2016-11-25T09:39:54.841Z,1004.09
2016-11-25T09:40:16.578Z,1004.09
2016-11-25T09:40:38.334Z,1003.99
2016-11-25T09:41:09.616Z,1004.00
2016-11-25T09:41:37.118Z,1004.01
2016-11-25T09:41:58.857Z,1004.00
2016-11-25T09:42:20.641Z,1003.96
2016-11-25T09:42:42.389Z,1004.08
2016-11-25T09:43:04.110Z,1004.00
2016-11-25T09:43:25.844Z,1003.99
2016-11-25T09:43:53.351Z,1003.91
2016-11-25T09:44:15.073Z,1004.11
2016-11-25T09:44:36.805Z,1003.99
2016-11-25T09:45:02.242Z,1003.89
2016-11-25T09:45:23.963Z,1003.93
2016-11-25T09:45:46.748Z,1003.86
2016-11-25T09:46:08.485Z,1003.94
2016-11-25T09:46:30.216Z,1004.05
2016-11-25T09:46:51.949Z,1004.00
2016-11-25T09:47:21.450Z,1003.96
2016-11-25T09:47:43.214Z,1004.10
2016-11-25T09:48:31.270Z,1004.06
2016-11-25T09:48:53.004Z,1004.01
2016-11-25T09:49:14.751Z,1003.95
2016-11-25T09:49:36.488Z,1003.90
2016-11-25T09:49:58.224Z,1003.97
2016-11-25T09:50:19.970Z,1003.97
2016-11-25T09:50:41.697Z,1004.02
2016-11-25T09:51:03.440Z,1003.98
2016-11-25T09:51:25.177Z,1004.07
2016-11-25T09:51:51.667Z,1004.00
2016-11-25T09:52:14.399Z,1003.98
2016-11-25T09:52:37.123Z,1004.08
2016-11-25T09:52:59.080Z,1004.18
2016-11-25T09:53:20.852Z,1004.13
2016-11-25T09:53:42.592Z,1004.06
2016-11-25T09:54:04.339Z,1004.03
2016-11-25T09:54:26.071Z,1004.12
2016-11-25T09:55:45.594Z,1004.08
2016-11-25T09:56:07.342Z,1003.98
2016-11-25T09:56:55.625Z,1004.03
2016-11-25T09:57:17.364Z,1004.06
2016-11-25T09:57:39.099Z,1004.00
2016-11-25T09:58:06.604Z,1004.08
2016-11-25T09:58:33.131Z,1003.90
2016-11-25T09:59:28.772Z,1004.06
2016-11-25T10:00:21.784Z,1004.03
2016-11-25T10:00:43.519Z,1004.07
2016-11-25T10:01:05.246Z,1004.07
2016-11-25T10:01:36.614Z,1003.96
2016-11-25T10:02:07.890Z,1003.98
2016-11-25T10:02:34.397Z,1003.98
2016-11-25T10:02:56.144Z,1003.92
2016-11-25T10:03:20.480Z,1004.07
2016-11-25T10:03:42.222Z,1003.92
2016-11-25T10:04:03.939Z,1003.99
2016-11-25T10:04:30.443Z,1003.98
2016-11-25T10:04:56.941Z,1003.94
2016-11-25T10:05:24.449Z,1003.90
2016-11-25T10:05:50.945Z,1003.93
2016-11-25T10:06:13.678Z,1003.93
2016-11-25T10:06:40.766Z,1003.97
2016-11-25T10:07:07.274Z,1003.84
2016-11-25T10:07:31.902Z,1003.97
2016-11-25T10:08:38.882Z,1004.06
2016-11-25T10:09:09.968Z,1003.84
2016-11-25T10:10:09.733Z,1003.77
2016-11-25T10:10:44.450Z,1003.77
2016-11-25T10:12:03.901Z,1003.79
2016-11-25T10:12:25.639Z,1003.78
2016-11-25T10:12:57.903Z,1003.81
2016-11-25T10:13:24.413Z,1003.92
2016-11-25T10:13:58.960Z,1003.75
2016-11-25T10:14:47.184Z,1003.79
2016-11-25T10:15:18.458Z,1003.78
2016-11-25T10:15:40.195Z,1003.76
2016-11-25T10:16:01.944Z,1003.77
2016-11-25T10:16:23.677Z,1003.79
2016-11-25T10:17:19.465Z,1003.78
2016-11-25T10:17:46.954Z,1003.85
2016-11-25T10:18:11.192Z,1003.85
2016-11-25T10:18:35.571Z,1003.76
2016-11-25T10:18:59.875Z,1003.81
2016-11-25T10:19:49.120Z,1003.92
2016-11-25T10:20:14.402Z,1003.81
2016-11-25T10:20:36.138Z,1003.88
2016-11-25T10:21:30.143Z,1003.76
2016-11-25T10:21:56.455Z,1003.70
2016-11-25T10:22:21.173Z,1003.71
2016-11-25T10:22:42.907Z,1003.80
2016-11-25T10:23:09.400Z,1003.82
2016-11-25T10:23:32.147Z,1003.82
2016-11-25T10:23:58.668Z,1003.87
2016-11-25T10:24:28.158Z,1003.76
2016-11-25T10:24:55.659Z,1003.74
2016-11-25T10:25:22.161Z,1003.98
2016-11-25T10:25:43.887Z,1003.80
2016-11-25T10:26:10.401Z,1003.74
2016-11-25T10:26:32.131Z,1003.78
2016-11-25T10:26:58.665Z,1003.75
2016-11-25T10:27:25.157Z,1003.75
2016-11-25T10:27:46.891Z,1003.80
2016-11-25T10:28:13.399Z,1003.76
2016-11-25T10:29:06.412Z,1003.77
2016-11-25T10:29:32.913Z,1003.90
2016-11-25T10:29:57.481Z,1003.88
2016-11-25T10:30:21.834Z,1003.80
2016-11-25T10:30:43.569Z,1003.74
2016-11-25T10:31:07.931Z,1003.80
2016-11-25T10:31:32.326Z,1003.76
2016-11-25T10:31:54.080Z,1003.86
2016-11-25T10:32:19.475Z,1003.79
2016-11-25T10:32:41.230Z,1003.73
2016-11-25T10:33:12.499Z,1003.82
2016-11-25T10:33:34.230Z,1003.81
2016-11-25T10:34:05.507Z,1003.87
2016-11-25T10:34:28.238Z,1003.82
2016-11-25T10:34:49.985Z,1003.83
2016-11-25T10:35:16.486Z,1003.81
2016-11-25T10:35:38.243Z,1003.78
2016-11-25T10:35:59.967Z,1003.75
2016-11-25T10:36:21.746Z,1003.90
2016-11-25T10:36:43.474Z,1003.77
2016-11-25T10:37:14.741Z,1003.75
2016-11-25T10:38:08.732Z,1003.80
2016-11-25T10:38:30.466Z,1003.64
2016-11-25T10:38:56.795Z,1003.66
2016-11-25T10:39:18.517Z,1003.78
2016-11-25T10:39:43.197Z,1003.66
2016-11-25T10:40:04.940Z,1003.70
2016-11-25T10:41:02.721Z,1003.70
2016-11-25T10:41:26.481Z,1003.66
2016-11-25T10:42:22.385Z,1003.80
2016-11-25T10:42:44.134Z,1003.75
2016-11-25T10:43:11.625Z,1003.77
2016-11-25T10:43:33.371Z,1003.67
2016-11-25T10:44:21.601Z,1003.75
2016-11-25T10:44:48.108Z,1003.73
2016-11-25T10:45:09.859Z,1003.74
2016-11-25T10:45:31.595Z,1003.76
2016-11-25T10:45:53.332Z,1003.77
2016-11-25T10:46:15.068Z,1003.87
2016-11-25T10:46:43.582Z,1003.68
2016-11-25T10:47:10.105Z,1003.74
2016-11-25T10:47:41.373Z,1003.71
2016-11-25T10:48:03.108Z,1003.76
2016-11-25T10:48:25.840Z,1003.74
2016-11-25T10:48:47.570Z,1003.80
2016-11-25T10:49:09.303Z,1003.76
2016-11-25T10:49:31.056Z,1003.73
2016-11-25T10:50:30.699Z,1003.71
2016-11-25T10:50:52.430Z,1003.71
2016-11-25T10:51:14.163Z,1003.68
2016-11-25T10:51:35.903Z,1003.74
2016-11-25T10:51:57.744Z,1003.73
2016-11-25T10:53:07.848Z,1003.57
2016-11-25T10:53:51.924Z,1003.62
2016-11-25T10:54:38.765Z,1003.64
2016-11-25T10:55:00.564Z,1003.70
2016-11-25T10:55:23.300Z,1003.64
2016-11-25T10:55:45.056Z,1003.72
2016-11-25T10:56:06.799Z,1003.65
2016-11-25T10:56:28.552Z,1003.70
2016-11-25T10:56:50.299Z,1003.73
2016-11-25T10:57:12.035Z,1003.61
2016-11-25T10:57:33.781Z,1003.68
2016-11-25T10:57:55.515Z,1003.69
2016-11-25T10:58:17.242Z,1003.59
2016-11-25T10:58:38.978Z,1003.68
2016-11-25T10:59:00.708Z,1003.63
2016-11-25T10:59:22.432Z,1003.62
2016-11-25T10:59:44.172Z,1003.61
2016-11-25T11:00:05.910Z,1003.62
2016-11-25T11:00:27.631Z,1003.54
2016-11-25T11:00:49.354Z,1003.66
2016-11-25T11:01:11.088Z,1003.59
2016-11-25T11:01:32.817Z,1003.56
2016-11-25T11:01:54.543Z,1003.61
2016-11-25T11:02:16.272Z,1003.61
2016-11-25T11:02:37.995Z,1003.69
2016-11-25T11:02:59.761Z,1003.70
2016-11-25T11:03:21.475Z,1003.63
2016-11-25T11:03:45.937Z,1003.58
2016-11-25T11:04:07.553Z,1003.64
2016-11-25T11:04:29.292Z,1003.63
2016-11-25T11:04:51.026Z,1003.62
2016-11-25T11:05:12.761Z,1003.65
2016-11-25T11:05:34.487Z,1003.64
2016-11-25T11:05:56.217Z,1003.71
2016-11-25T11:06:17.937Z,1003.61
2016-11-25T11:06:39.664Z,1003.63
2016-11-25T11:07:01.394Z,1003.64
2016-11-25T11:07:23.136Z,1003.68
2016-11-25T11:07:44.835Z,1003.60
2016-11-25T11:08:06.566Z,1003.61
2016-11-25T11:08:28.290Z,1003.59
2016-11-25T11:08:50.019Z,1003.66
2016-11-25T11:09:11.736Z,1003.52
2016-11-25T11:09:33.494Z,1003.61
2016-11-25T11:09:55.218Z,1003.62
2016-11-25T11:10:16.950Z,1003.56
2016-11-25T11:10:38.674Z,1003.58
2016-11-25T11:11:00.403Z,1003.67
2016-11-25T11:11:22.136Z,1003.58
2016-11-25T11:11:43.873Z,1003.62
2016-11-25T11:12:05.596Z,1003.62
2016-11-25T11:12:27.316Z,1003.67
2016-11-25T11:12:49.038Z,1003.68
2016-11-25T11:13:10.763Z,1003.60
2016-11-25T11:13:32.494Z,1003.60
2016-11-25T11:13:59.069Z,1003.57
2016-11-25T11:14:47.413Z,1003.66
2016-11-25T11:15:09.158Z,1003.61
2016-11-25T11:15:30.920Z,1003.62
2016-11-25T11:15:52.716Z,1003.77
2016-11-25T11:16:14.442Z,1003.63
2016-11-25T11:16:36.163Z,1003.65
2016-11-25T11:16:57.905Z,1003.69
2016-11-25T11:17:19.649Z,1003.69
2016-11-25T11:17:41.391Z,1003.67
2016-11-25T11:18:03.140Z,1003.71
2016-11-25T11:18:24.864Z,1003.63
2016-11-25T11:18:46.614Z,1003.61
2016-11-25T11:19:08.356Z,1003.59
2016-11-25T11:19:30.077Z,1003.52
2016-11-25T11:19:51.861Z,1003.52
2016-11-25T11:20:13.604Z,1003.65
2016-11-25T11:20:35.437Z,1003.59
2016-11-25T11:20:57.124Z,1003.67
2016-11-25T11:21:18.845Z,1003.67
2016-11-25T11:21:40.588Z,1003.61
2016-11-25T11:22:02.320Z,1003.65
2016-11-25T11:22:24.058Z,1003.62
2016-11-25T11:22:45.800Z,1003.62
2016-11-25T11:23:07.552Z,1003.63
2016-11-25T11:23:29.304Z,1003.68
2016-11-25T11:23:52.019Z,1003.66